Airfield :
LOGIN :

Register | Disclaimer

   EN    FR    IT 

 










Legend :    VFR   Marginal VFR   IFR   Intensive IFR   Very Intensive IFR
Visi :
Ceiling :
>= 8 km
>= 3000ft
5 to 8 km
1000 to 3000 ft
1500m to 5 km
500 to 1000 ft
800 to 1500m
200 to 500 ft
< 800m
< 200 ft
Symbols :   Thunderstorms  Fog  Heavy snow  Heavy precipitations  Wind > 20 kt
SIGMETs :     Misc.  Thunderstorms  Icing  Turbulence  Mountain Waves  Volcanic Ashes






- Airport Elevation : 2096 ft
- IATA code : AUR


LFLW - Aurillac

CURRENT METAR :
  • 270230Z AUTO 26005KT 230V290 9999 -DZ BKN009/// OVC014/// ///TCU 06/06 Q1013

EXPIRED METARs :
  • 270200Z AUTO 26004KT 230V290 9999 SCT009/// BKN018/// BKN023/// ///TCU 06/06 Q1013
  • 270130Z AUTO 25005KT 230V290 6000 -DZ BKN005/// OVC010/// ///TCU 06/06 Q1013
  • 270100Z AUTO 25004KT 9999 FEW008/// BKN017/// OVC024/// ///TCU 06/06 Q1013
  • 270030Z AUTO 25004KT 220V280 9999 -RA BKN007/// OVC013/// ///TCU 06/06 Q1013
  • 270000Z AUTO VRB03KT 9999 BKN009/// OVC014/// ///TCU 06/05 Q1013
  • 262330Z AUTO VRB02KT 9999 BKN012/// OVC017/// ///TCU 05/05 Q1014

Expired Forecast.



MET'MAP, your aeronautical weather chart ! - Copyright ORBIFLY December 2007 - Disclaimer

ORBIFLY MET'MAP TEAM :

Programming & Development : Alexandra Zaïnal
Concept & original design : Baudouin d'Aumeries
Assistance for programming : Marc-Olivier Méhu
Technical & hardware support : Manuel Goepfert

Contact : metmap@orbifly.com




SOURCES & CREDITS :

   NOAA